Birch, Wisconsin
Current Conditions -  °F | °C
As of 7:15 PM on Friday 31 Oct 2014 (Local Time) from KTKV Reporting Station
Overcast Overcast  
Wind Chill: 30°   Ceiling: 3100
Heat Index: 30°   Visibility: 10mi
Dew Point: 21°   Wind: 3mph
Humidity: 68%   Direction: 340°NNW
Pressure: 30.44"   Gusts: NA
Location:  45.3496°N, 89.6689°W
Report Text: KTKV 010015Z AUTO 34003KT 10SM OVC031 M01/M06 A3044 RMK AO2 T10101063
Loading
Personal Weather Stations






























Interactive Weather Map
Tropical Storm Tracking
New forecast layout! Learn more

10-Day Weather Forecast

Advertisements
Track Severe Weather on mobile